createdAt,value
2023-03-18T00:03:45.831Z,12.60
2023-03-18T00:07:50.316Z,12.60
2023-03-18T00:11:56.626Z,12.70
2023-03-18T00:15:59.410Z,12.70
2023-03-18T00:20:05.895Z,12.70
2023-03-18T00:24:09.616Z,12.70
2023-03-18T00:28:13.875Z,12.80
2023-03-18T00:32:16.860Z,12.80
2023-03-18T00:36:25.592Z,12.80
2023-03-18T00:40:43.017Z,12.80
2023-03-18T00:44:47.334Z,12.80
2023-03-18T00:48:50.317Z,12.80
2023-03-18T00:52:53.542Z,12.80
2023-03-18T00:56:57.859Z,12.70
2023-03-18T01:01:02.192Z,12.70
2023-03-18T01:05:05.461Z,12.70
2023-03-18T01:09:11.255Z,12.70
2023-03-18T01:13:14.598Z,12.70
2023-03-18T01:17:18.745Z,12.60
2023-03-18T01:21:22.354Z,12.60
2023-03-18T01:25:25.244Z,12.50
2023-03-18T01:29:28.072Z,12.50
2023-03-18T01:33:32.211Z,12.40
2023-03-18T01:37:34.988Z,12.40
2023-03-18T01:41:37.801Z,12.40
2023-03-18T01:45:41.448Z,12.30
2023-03-18T01:49:47.175Z,12.20
2023-03-18T01:53:50.891Z,12.20
2023-03-18T01:57:53.941Z,12.20
2023-03-18T02:01:59.076Z,12.10
2023-03-18T02:06:03.604Z,12.10
2023-03-18T02:10:10.981Z,12.10
2023-03-18T02:14:15.426Z,12.00
2023-03-18T02:18:20.029Z,12.00
2023-03-18T02:22:26.567Z,12.00
2023-03-18T02:26:32.677Z,12.00
2023-03-18T02:30:38.614Z,11.90
2023-03-18T02:34:41.970Z,11.90
2023-03-18T02:38:45.413Z,11.90
2023-03-18T02:42:48.470Z,11.90
2023-03-18T02:46:55.645Z,11.80
2023-03-18T02:50:58.448Z,11.80
2023-03-18T02:55:01.777Z,11.80
2023-03-18T02:59:04.917Z,11.70
2023-03-18T03:03:09.443Z,11.70
2023-03-18T03:07:13.069Z,11.70
2023-03-18T03:11:16.515Z,11.60
2023-03-18T03:15:19.750Z,11.60
2023-03-18T03:19:23.896Z,11.60
2023-03-18T03:23:27.483Z,11.60
2023-03-18T03:27:30.354Z,11.60
2023-03-18T03:31:33.809Z,11.60
2023-03-18T03:35:38.677Z,11.60
2023-03-18T03:39:41.553Z,11.60
2023-03-18T03:43:44.710Z,11.60
2023-03-18T03:47:47.590Z,11.50
2023-03-18T03:51:52.062Z,11.60
2023-03-18T03:55:59.012Z,11.50
2023-03-18T04:00:02.126Z,11.60
2023-03-18T04:04:05.598Z,11.60
2023-03-18T04:08:10.088Z,11.50
2023-03-18T04:12:13.851Z,11.60
2023-03-18T04:16:17.159Z,11.60
2023-03-18T04:20:20.893Z,11.60
2023-03-18T04:24:25.096Z,11.60
2023-03-18T04:28:27.894Z,11.60
2023-03-18T04:32:30.737Z,11.70
2023-03-18T04:36:33.647Z,11.70
2023-03-18T04:40:37.847Z,11.70
2023-03-18T04:44:40.783Z,11.70
2023-03-18T04:48:44.076Z,11.70
2023-03-18T04:52:47.312Z,11.70
2023-03-18T04:56:52.683Z,11.60
2023-03-18T05:00:55.583Z,11.60
2023-03-18T05:04:58.631Z,11.60
2023-03-18T05:09:01.805Z,11.60
2023-03-18T05:13:06.332Z,11.50
2023-03-18T05:17:15.429Z,11.50
2023-03-18T05:21:18.264Z,11.50
2023-03-18T05:25:21.354Z,11.50
2023-03-18T05:29:25.527Z,11.40
2023-03-18T05:33:28.506Z,11.50
2023-03-18T05:37:31.556Z,11.50
2023-03-18T05:41:34.440Z,11.50
2023-03-18T05:45:40.276Z,11.50
2023-03-18T05:49:43.669Z,11.50
2023-03-18T05:53:46.476Z,11.50
2023-03-18T05:57:49.557Z,11.60
2023-03-18T06:01:53.980Z,11.60
2023-03-18T06:05:56.803Z,11.60
2023-03-18T06:09:59.638Z,11.60
2023-03-18T06:14:02.446Z,11.60
2023-03-18T06:18:06.857Z,11.60
2023-03-18T06:22:09.982Z,11.60
2023-03-18T06:26:12.771Z,11.60
2023-03-18T06:30:16.206Z,11.70
2023-03-18T06:34:20.507Z,11.80
2023-03-18T06:38:23.340Z,11.90
2023-03-18T06:42:28.243Z,12.00
2023-03-18T06:46:31.175Z,12.00
2023-03-18T06:50:35.377Z,12.10
2023-03-18T06:54:38.206Z,12.10
2023-03-18T06:58:41.187Z,12.10
2023-03-18T07:02:44.392Z,12.10
2023-03-18T07:06:51.375Z,12.20
2023-03-18T07:10:57.070Z,12.20
2023-03-18T07:15:00.346Z,12.20
2023-03-18T07:19:04.221Z,12.20
2023-03-18T07:23:08.544Z,12.30
2023-03-18T07:27:13.422Z,12.30
2023-03-18T07:31:16.844Z,12.40
2023-03-18T07:35:20.061Z,12.40
2023-03-18T07:39:24.375Z,12.50
2023-03-18T07:43:27.244Z,12.50
2023-03-18T07:47:30.607Z,12.50
2023-03-18T07:51:33.476Z,12.60
2023-03-18T07:55:37.617Z,12.60
2023-03-18T07:59:40.709Z,12.70
2023-03-18T08:03:44.564Z,12.70
2023-03-18T08:07:47.397Z,12.80
2023-03-18T08:11:52.553Z,12.80
2023-03-18T08:15:56.231Z,12.90
2023-03-18T08:19:59.090Z,13.00
2023-03-18T08:24:01.916Z,13.10
2023-03-18T08:28:07.677Z,13.20
2023-03-18T08:32:11.040Z,13.30
2023-03-18T08:36:14.206Z,13.30
2023-03-18T08:40:17.938Z,13.40
2023-03-18T08:44:22.098Z,13.40
2023-03-18T08:48:25.750Z,13.50
2023-03-18T08:52:28.544Z,13.80
2023-03-18T08:56:31.553Z,14.10
2023-03-18T09:00:38.019Z,14.40
2023-03-18T09:04:41.004Z,14.60
2023-03-18T09:08:44.821Z,14.70
2023-03-18T09:12:47.985Z,14.70
2023-03-18T09:16:52.186Z,14.60
2023-03-18T09:20:56.614Z,14.60
2023-03-18T09:24:59.596Z,14.60
2023-03-18T09:29:02.714Z,14.50
2023-03-18T09:33:07.762Z,14.50
2023-03-18T09:37:11.003Z,14.50
2023-03-18T09:41:22.610Z,14.50
2023-03-18T09:45:27.576Z,14.60
2023-03-18T09:49:57.711Z,14.70
2023-03-18T09:54:04.327Z,14.80
2023-03-18T09:58:11.394Z,14.90
2023-03-18T10:02:19.505Z,14.90
2023-03-18T10:06:23.182Z,15.00
2023-03-18T10:10:29.303Z,15.20
2023-03-18T10:14:37.307Z,15.50
2023-03-18T10:18:43.338Z,15.70
2023-03-18T10:23:07.197Z,15.90
2023-03-18T10:27:16.995Z,16.00
2023-03-18T10:31:29.691Z,16.20
2023-03-18T10:35:37.744Z,16.40
2023-03-18T10:39:41.337Z,16.60
2023-03-18T10:43:46.704Z,16.80
2023-03-18T10:47:53.265Z,17.00
2023-03-18T10:52:00.258Z,17.20
2023-03-18T10:56:06.154Z,17.50
2023-03-18T11:00:19.636Z,18.00
2023-03-18T11:04:23.865Z,18.40
2023-03-18T11:08:36.980Z,18.80
2023-03-18T11:12:39.774Z,19.00
2023-03-18T11:16:49.570Z,19.10
2023-03-18T11:21:17.374Z,19.10
2023-03-18T11:25:23.427Z,19.00
2023-03-18T11:29:27.357Z,18.80
2023-03-18T11:33:47.113Z,18.70
2023-03-18T11:37:53.435Z,18.60
2023-03-18T11:41:56.239Z,18.40
2023-03-18T11:46:00.116Z,18.20
2023-03-18T11:50:04.180Z,18.10
2023-03-18T11:54:14.235Z,18.00
2023-03-18T11:58:28.353Z,18.10
2023-03-18T12:02:40.153Z,18.30
2023-03-18T12:06:48.106Z,18.70
2023-03-18T12:10:56.025Z,19.00
2023-03-18T12:15:02.572Z,19.30
2023-03-18T12:19:26.742Z,19.30
2023-03-18T12:23:35.501Z,19.60
2023-03-18T12:27:43.082Z,19.90
2023-03-18T12:31:52.046Z,20.00
2023-03-18T12:36:00.074Z,20.10
2023-03-18T12:40:18.123Z,20.10
2023-03-18T12:44:29.736Z,20.20
2023-03-18T12:48:43.733Z,20.10
2023-03-18T12:52:49.638Z,20.20
2023-03-18T12:56:55.379Z,20.20
2023-03-18T13:01:06.925Z,20.20
2023-03-18T13:05:18.423Z,20.20
2023-03-18T13:09:26.658Z,20.10
2023-03-18T13:13:29.849Z,20.00
2023-03-18T13:17:41.096Z,19.80
2023-03-18T13:21:45.960Z,19.60
2023-03-18T13:25:56.508Z,19.50
2023-03-18T13:30:04.919Z,19.40
2023-03-18T13:34:19.044Z,19.40
2023-03-18T13:38:39.518Z,19.30
2023-03-18T13:42:42.494Z,19.20
2023-03-18T13:46:48.721Z,19.20
2023-03-18T13:51:12.337Z,19.10
2023-03-18T13:55:23.562Z,19.00
2023-03-18T13:59:43.638Z,19.00
2023-03-18T14:04:03.024Z,19.00
2023-03-18T14:08:07.218Z,19.00
2023-03-18T14:12:30.817Z,18.90
2023-03-18T14:16:48.861Z,18.90
2023-03-18T14:20:55.690Z,18.90
2023-03-18T14:25:19.638Z,18.80
2023-03-18T14:29:25.153Z,18.70
2023-03-18T14:33:33.160Z,18.70
2023-03-18T14:37:56.369Z,18.70
2023-03-18T14:42:02.734Z,18.60
2023-03-18T14:46:10.341Z,18.60
2023-03-18T14:50:28.742Z,18.50
2023-03-18T14:54:43.443Z,18.50
2023-03-18T14:58:47.309Z,18.50
2023-03-18T15:03:00.670Z,18.50
2023-03-18T15:07:05.716Z,18.50
2023-03-18T15:11:19.581Z,18.50
2023-03-18T15:15:24.746Z,18.50
2023-03-18T15:19:33.380Z,18.40
2023-03-18T15:23:38.093Z,18.40
2023-03-18T15:27:42.825Z,18.40
2023-03-18T15:31:46.180Z,18.40
2023-03-18T15:36:01.789Z,18.30
2023-03-18T15:40:38.100Z,18.30
2023-03-18T15:44:42.985Z,18.20
2023-03-18T15:48:54.412Z,18.20
2023-03-18T15:53:04.487Z,18.20
2023-03-18T15:57:12.094Z,18.20
2023-03-18T16:01:18.649Z,18.20
2023-03-18T16:05:24.779Z,18.20
2023-03-18T16:09:29.310Z,18.30
2023-03-18T16:13:34.254Z,18.40
2023-03-18T16:17:38.433Z,18.50
2023-03-18T16:21:41.467Z,18.60
2023-03-18T16:25:44.928Z,18.60
2023-03-18T16:29:48.412Z,18.60
2023-03-18T16:33:57.711Z,18.40
2023-03-18T16:38:00.762Z,18.40
2023-03-18T16:42:05.417Z,18.30
2023-03-18T16:46:14.683Z,18.20
2023-03-18T16:50:22.577Z,18.10
2023-03-18T16:54:28.283Z,18.00
2023-03-18T16:58:33.660Z,17.80
2023-03-18T17:02:40.509Z,17.70
2023-03-18T17:06:44.696Z,17.50
2023-03-18T17:10:49.460Z,17.40
2023-03-18T17:14:53.595Z,17.30
2023-03-18T17:18:56.447Z,17.10
2023-03-18T17:23:01.136Z,16.90
2023-03-18T17:27:04.279Z,16.80
2023-03-18T17:31:07.669Z,16.60
2023-03-18T17:35:14.194Z,16.40
2023-03-18T17:39:19.170Z,16.30
2023-03-18T17:43:27.542Z,16.10
2023-03-18T17:47:31.112Z,15.90
2023-03-18T17:51:34.584Z,15.80
2023-03-18T17:55:39.460Z,15.60
2023-03-18T17:59:43.401Z,15.50
2023-03-18T18:03:47.445Z,15.30
2023-03-18T18:07:51.335Z,15.20
2023-03-18T18:11:55.585Z,15.10
2023-03-18T18:15:58.533Z,15.00
2023-03-18T18:20:01.416Z,14.90
2023-03-18T18:24:04.915Z,14.80
2023-03-18T18:28:11.911Z,14.80
2023-03-18T18:32:16.425Z,14.70
2023-03-18T18:36:19.264Z,14.70
2023-03-18T18:40:22.067Z,14.60
2023-03-18T18:44:24.970Z,14.50
2023-03-18T18:48:30.926Z,14.40
2023-03-18T18:52:34.150Z,14.30
2023-03-18T18:56:37.451Z,14.20
2023-03-18T19:00:41.388Z,14.10
2023-03-18T19:04:46.527Z,14.00
2023-03-18T19:08:49.314Z,13.90
2023-03-18T19:12:52.600Z,13.80
2023-03-18T19:16:58.266Z,13.70
2023-03-18T19:21:02.558Z,13.60
2023-03-18T19:25:05.512Z,13.50
2023-03-18T19:29:10.978Z,13.40
2023-03-18T19:33:18.121Z,13.30
2023-03-18T19:37:25.025Z,13.30
2023-03-18T19:41:28.004Z,13.20
2023-03-18T19:45:30.893Z,13.10
2023-03-18T19:49:35.952Z,13.10
2023-03-18T19:53:42.393Z,13.10
2023-03-18T19:57:46.882Z,13.00
2023-03-18T20:01:49.790Z,13.00
2023-03-18T20:05:52.650Z,12.90
2023-03-18T20:09:57.017Z,12.90
2023-03-18T20:13:59.886Z,12.90
2023-03-18T20:18:02.778Z,12.80
2023-03-18T20:22:05.628Z,12.80
2023-03-18T20:26:09.795Z,12.80
2023-03-18T20:30:21.235Z,12.70
2023-03-18T20:34:24.765Z,12.70
2023-03-18T20:38:31.135Z,12.60
2023-03-18T20:42:35.325Z,12.60
2023-03-18T20:46:38.312Z,12.50
2023-03-18T20:50:41.698Z,12.50
2023-03-18T20:54:44.539Z,12.50
2023-03-18T20:58:49.398Z,12.50
2023-03-18T21:02:53.440Z,12.50
2023-03-18T21:06:56.997Z,12.40
2023-03-18T21:11:02.049Z,12.40
2023-03-18T21:15:07.657Z,12.30
2023-03-18T21:19:10.708Z,12.30
2023-03-18T21:23:18.900Z,12.20
2023-03-18T21:27:22.527Z,12.10
2023-03-18T21:31:27.910Z,12.00
2023-03-18T21:35:31.460Z,12.00
2023-03-18T21:39:35.155Z,12.00
2023-03-18T21:43:39.675Z,11.90
2023-03-18T21:47:44.199Z,11.90
2023-03-18T21:51:47.090Z,11.80
2023-03-18T21:55:50.428Z,11.80
2023-03-18T21:59:53.853Z,11.80
2023-03-18T22:03:58.113Z,11.70
2023-03-18T22:08:01.055Z,11.70
2023-03-18T22:12:03.835Z,11.70
2023-03-18T22:16:07.325Z,11.70
2023-03-18T22:20:12.731Z,11.60
2023-03-18T22:24:15.700Z,11.60
2023-03-18T22:28:18.538Z,11.50
2023-03-18T22:32:23.991Z,11.50
2023-03-18T22:36:29.718Z,11.40
2023-03-18T22:40:33.029Z,11.40
2023-03-18T22:44:35.843Z,11.40
2023-03-18T22:48:38.866Z,11.30
2023-03-18T22:52:43.429Z,11.30
2023-03-18T22:56:46.295Z,11.20
2023-03-18T23:00:49.601Z,11.20
2023-03-18T23:04:53.057Z,11.10
2023-03-18T23:08:57.232Z,11.10
2023-03-18T23:13:00.148Z,11.10
2023-03-18T23:17:02.977Z,11.00
2023-03-18T23:21:05.918Z,11.00
2023-03-18T23:25:13.287Z,10.90
2023-03-18T23:29:16.834Z,10.90
2023-03-18T23:33:20.023Z,10.90
2023-03-18T23:37:24.144Z,10.90
2023-03-18T23:41:28.264Z,10.80
2023-03-18T23:45:32.031Z,10.80
2023-03-18T23:49:35.011Z,10.70
2023-03-18T23:53:37.831Z,10.70
2023-03-18T23:57:42.022Z,10.70
